Time;durP1;ratioP1;P1;durP2;ratioP2;P2;SDS_P1;SDS_P2;PMS_P1;PMS_P2;Temp;Humidity;BMP_temperature;BMP_pressure;BME280_temperature;BME280_humidity;BME280_pressure;Samples;Min_cycle;Max_cycle;Signal;HPM_P1;HPM_P2
2021/07/07 00:01:29;;;;;;;17.98;8.23;;;;;;;;;;5053159;28;20028;-63
2021/07/07 00:03:55;;;;;;;15.38;7.72;;;;;;;;;;5054077;28;20025;-63
2021/07/07 00:06:21;;;;;;;14.43;7.05;;;;;;;;;;5053775;28;20036;-62
2021/07/07 00:08:47;;;;;;;14.27;7.15;;;;;;;;;;5054399;28;20103;-62
2021/07/07 00:11:13;;;;;;;17.45;7.43;;;;;;;;;;5054170;28;20071;-62
2021/07/07 00:13:39;;;;;;;15.13;7.13;;;;;;;;;;5054190;28;20579;-62
2021/07/07 00:16:05;;;;;;;15.52;7.60;;;;;;;;;;5053152;28;20104;-62
2021/07/07 00:18:31;;;;;;;16.67;8.13;;;;;;;;;;5054056;28;20028;-63
2021/07/07 00:20:57;;;;;;;16.08;7.93;;;;;;;;;;5054332;28;20025;-62
2021/07/07 00:23:24;;;;;;;15.75;7.90;;;;;;;;;;5054106;28;20049;-62
2021/07/07 00:25:50;;;;;;;14.90;7.45;;;;;;;;;;5053318;28;20107;-61
2021/07/07 00:28:16;;;;;;;18.00;7.28;;;;;;;;;;5052682;28;20150;-63
2021/07/07 00:30:42;;;;;;;15.77;7.50;;;;;;;;;;5053788;28;20070;-62
2021/07/07 00:33:09;;;;;;;17.27;7.32;;;;;;;;;;5053725;28;20108;-62
2021/07/07 00:35:35;;;;;;;17.73;7.63;;;;;;;;;;5053084;28;20282;-62
2021/07/07 00:38:01;;;;;;;16.02;7.50;;;;;;;;;;5053451;28;20068;-63
2021/07/07 00:40:27;;;;;;;17.58;8.20;;;;;;;;;;5053444;28;20021;-62
2021/07/07 00:42:53;;;;;;;16.77;7.40;;;;;;;;;;5053558;28;20028;-64
2021/07/07 00:45:19;;;;;;;15.07;6.78;;;;;;;;;;5052705;28;20029;-63
2021/07/07 00:47:46;;;;;;;18.38;7.45;;;;;;;;;;5053206;28;20485;-63
2021/07/07 00:50:12;;;;;;;17.77;6.97;;;;;;;;;;5053351;28;20098;-61
2021/07/07 00:52:38;;;;;;;16.65;7.13;;;;;;;;;;5052863;28;20021;-62
2021/07/07 00:55:08;;;;;;;15.77;7.40;;;;;;;;;;5052296;28;20024;-62
2021/07/07 00:57:35;;;;;;;17.38;6.70;;;;;;;;;;5052650;28;20040;-62
2021/07/07 01:00:01;;;;;;;15.70;8.25;;;;;;;;;;5052586;28;20391;-62
2021/07/07 01:02:28;;;;;;;17.20;7.28;;;;;;;;;;5052811;28;20139;-62
2021/07/07 01:04:54;;;;;;;17.05;7.43;;;;;;;;;;5051782;28;20029;-63
2021/07/07 01:07:20;;;;;;;16.77;7.15;;;;;;;;;;5051230;28;20021;-62
2021/07/07 01:09:46;;;;;;;18.58;7.22;;;;;;;;;;5052457;28;20032;-62
2021/07/07 01:12:12;;;;;;;17.58;7.65;;;;;;;;;;5052329;28;20385;-61
2021/07/07 01:14:38;;;;;;;15.77;7.30;;;;;;;;;;5051701;28;20064;-62
2021/07/07 01:17:05;;;;;;;15.43;7.43;;;;;;;;;;5052674;28;20055;-64
2021/07/07 01:19:31;;;;;;;16.20;8.13;;;;;;;;;;5052803;28;20064;-63
2021/07/07 01:21:57;;;;;;;15.77;7.45;;;;;;;;;;5051588;28;20470;-62
2021/07/07 01:24:23;;;;;;;19.33;8.00;;;;;;;;;;5052213;28;20025;-63
2021/07/07 01:26:49;;;;;;;18.08;8.30;;;;;;;;;;5051356;28;20083;-63
2021/07/07 01:29:15;;;;;;;18.13;8.15;;;;;;;;;;5052068;28;20017;-64
2021/07/07 01:31:45;;;;;;;19.17;8.20;;;;;;;;;;5051226;28;20025;-63
2021/07/07 01:34:11;;;;;;;17.55;8.30;;;;;;;;;;5051871;28;20031;-62
2021/07/07 01:36:38;;;;;;;16.45;7.78;;;;;;;;;;5052275;28;20017;-63
2021/07/07 01:39:05;;;;;;;17.02;7.80;;;;;;;;;;5052495;28;20027;-62
2021/07/07 01:41:31;;;;;;;19.80;8.45;;;;;;;;;;5051511;28;20035;-62
2021/07/07 01:43:57;;;;;;;18.42;9.65;;;;;;;;;;5052385;28;20036;-62
2021/07/07 01:46:23;;;;;;;16.25;8.27;;;;;;;;;;5050387;28;20031;-63
2021/07/07 01:48:50;;;;;;;16.75;8.95;;;;;;;;;;5052290;28;20112;-63
2021/07/07 01:51:16;;;;;;;18.27;8.32;;;;;;;;;;5052078;28;20024;-62
2021/07/07 01:53:42;;;;;;;17.58;8.57;;;;;;;;;;5051027;28;20031;-63
2021/07/07 01:56:08;;;;;;;16.83;8.43;;;;;;;;;;5051745;28;20485;-63
2021/07/07 01:58:34;;;;;;;16.65;8.48;;;;;;;;;;5052004;28;20211;-63
2021/07/07 02:01:00;;;;;;;15.90;9.10;;;;;;;;;;5052402;28;20385;-62
2021/07/07 02:03:26;;;;;;;17.90;8.93;;;;;;;;;;5052193;28;20516;-62
2021/07/07 02:05:52;;;;;;;17.08;9.18;;;;;;;;;;5050150;28;20021;-61
2021/07/07 02:08:18;;;;;;;17.23;8.50;;;;;;;;;;5052132;28;20021;-62
2021/07/07 02:10:44;;;;;;;16.33;7.65;;;;;;;;;;5051853;28;20035;-62
2021/07/07 02:13:11;;;;;;;15.90;7.60;;;;;;;;;;5050814;28;20551;-62
2021/07/07 02:15:38;;;;;;;19.95;9.05;;;;;;;;;;5050097;28;20025;-62
2021/07/07 02:18:05;;;;;;;17.00;8.35;;;;;;;;;;5051756;28;20017;-61
2021/07/07 02:20:33;;;;;;;16.80;8.27;;;;;;;;;;5051026;28;20041;-61
2021/07/07 02:22:59;;;;;;;16.33;8.00;;;;;;;;;;5050616;28;20481;-62
2021/07/07 02:25:29;;;;;;;19.13;8.30;;;;;;;;;;5051165;28;20027;-62
2021/07/07 02:27:56;;;;;;;16.75;7.75;;;;;;;;;;5051758;28;20021;-63
2021/07/07 02:30:24;;;;;;;17.42;7.93;;;;;;;;;;5050319;28;20048;-63
2021/07/07 02:32:51;;;;;;;14.70;7.75;;;;;;;;;;5050499;28;20485;-63
2021/07/07 02:35:21;;;;;;;16.85;7.85;;;;;;;;;;5049816;28;20040;-63
2021/07/07 02:37:49;;;;;;;15.75;7.60;;;;;;;;;;5051608;28;20017;-62
2021/07/07 02:40:15;;;;;;;17.50;7.70;;;;;;;;;;5054829;28;20451;-60
2021/07/07 02:42:41;;;;;;;17.13;7.90;;;;;;;;;;5055027;28;20094;-62
2021/07/07 02:45:08;;;;;;;16.98;7.20;;;;;;;;;;5055054;28;20029;-61
2021/07/07 02:47:34;;;;;;;19.95;7.82;;;;;;;;;;5054224;28;20037;-61
2021/07/07 02:50:00;;;;;;;18.95;7.95;;;;;;;;;;5055636;28;20402;-62
2021/07/07 02:52:26;;;;;;;14.45;7.15;;;;;;;;;;5054343;28;20036;-62
2021/07/07 02:54:52;;;;;;;17.42;7.85;;;;;;;;;;5053590;28;20029;-62
2021/07/07 02:57:18;;;;;;;17.38;8.02;;;;;;;;;;5055626;28;20032;-62
2021/07/07 02:59:44;;;;;;;19.52;8.45;;;;;;;;;;5055713;28;20017;-61
2021/07/07 03:02:11;;;;;;;16.23;7.88;;;;;;;;;;5054370;28;20654;-62
2021/07/07 03:04:37;;;;;;;17.02;7.55;;;;;;;;;;5054509;28;20029;-62
2021/07/07 03:07:06;;;;;;;18.92;7.97;;;;;;;;;;5055241;28;20104;-63
2021/07/07 03:09:32;;;;;;;15.27;7.65;;;;;;;;;;5055291;28;20061;-63
2021/07/07 03:11:58;;;;;;;17.55;8.13;;;;;;;;;;5055332;28;20025;-63
2021/07/07 03:14:24;;;;;;;15.93;7.75;;;;;;;;;;5054272;28;20081;-61
2021/07/07 03:16:50;;;;;;;17.33;9.00;;;;;;;;;;5055245;28;20013;-63
2021/07/07 03:19:16;;;;;;;18.48;8.55;;;;;;;;;;5055260;28;20065;-63
2021/07/07 03:21:42;;;;;;;15.80;7.75;;;;;;;;;;5053952;28;20074;-62
2021/07/07 03:24:10;;;;;;;17.33;8.40;;;;;;;;;;5054755;28;20029;-61
2021/07/07 03:26:36;;;;;;;17.45;7.85;;;;;;;;;;5054909;28;20033;-62
2021/07/07 03:29:02;;;;;;;18.85;8.90;;;;;;;;;;5055001;28;20483;-63
2021/07/07 03:31:28;;;;;;;16.98;7.88;;;;;;;;;;5054921;28;20033;-60
2021/07/07 03:33:54;;;;;;;19.10;7.78;;;;;;;;;;5054683;28;20064;-62
2021/07/07 03:36:20;;;;;;;17.95;7.40;;;;;;;;;;5053891;28;20072;-63
2021/07/07 03:38:46;;;;;;;17.17;7.97;;;;;;;;;;5054419;28;20461;-63
2021/07/07 03:41:12;;;;;;;17.27;7.30;;;;;;;;;;5053822;28;20021;-62
2021/07/07 03:43:39;;;;;;;17.02;7.65;;;;;;;;;;5054546;28;20028;-62
2021/07/07 03:46:05;;;;;;;19.05;8.13;;;;;;;;;;5053828;28;20032;-63
2021/07/07 03:48:31;;;;;;;17.75;7.93;;;;;;;;;;5054357;28;20025;-62
2021/07/07 03:50:57;;;;;;;18.67;7.72;;;;;;;;;;5053817;28;20074;-63
2021/07/07 03:53:23;;;;;;;17.20;7.82;;;;;;;;;;5054375;28;20441;-62
2021/07/07 03:55:49;;;;;;;17.25;7.72;;;;;;;;;;5053561;28;20037;-62
2021/07/07 03:58:15;;;;;;;18.83;7.80;;;;;;;;;;5054077;28;20039;-62
2021/07/07 04:00:41;;;;;;;16.60;7.07;;;;;;;;;;5052905;28;20025;-60
2021/07/07 04:03:07;;;;;;;17.33;8.02;;;;;;;;;;5052979;28;20033;-63
2021/07/07 04:05:33;;;;;;;16.60;8.10;;;;;;;;;;5053328;28;20024;-62
2021/07/07 04:08:00;;;;;;;19.70;8.00;;;;;;;;;;5053896;28;20378;-61
2021/07/07 04:10:26;;;;;;;20.65;8.32;;;;;;;;;;5054029;28;20025;-62
2021/07/07 04:12:52;;;;;;;18.95;8.85;;;;;;;;;;5053925;28;20477;-63
2021/07/07 04:15:19;;;;;;;17.17;8.95;;;;;;;;;;5053303;28;20611;-61
2021/07/07 04:17:45;;;;;;;18.90;8.98;;;;;;;;;;5052524;28;20021;-62
2021/07/07 04:20:12;;;;;;;20.40;7.90;;;;;;;;;;5052113;28;20021;-62
2021/07/07 04:22:38;;;;;;;17.73;8.27;;;;;;;;;;5053683;28;20021;-61
2021/07/07 04:25:06;;;;;;;17.27;8.25;;;;;;;;;;5052890;28;20021;-63
2021/07/07 04:27:33;;;;;;;21.00;9.20;;;;;;;;;;5053504;28;20036;-62
2021/07/07 04:29:59;;;;;;;17.77;9.02;;;;;;;;;;5053647;28;20044;-62
2021/07/07 04:32:25;;;;;;;19.30;8.60;;;;;;;;;;5052156;28;20465;-61
2021/07/07 04:34:54;;;;;;;20.10;8.60;;;;;;;;;;5052595;28;20111;-62
2021/07/07 04:37:20;;;;;;;18.73;8.23;;;;;;;;;;5053287;28;20025;-62
2021/07/07 04:39:46;;;;;;;15.52;7.80;;;;;;;;;;5053601;28;20500;-62
2021/07/07 04:42:12;;;;;;;19.13;8.23;;;;;;;;;;5053105;28;20032;-59
2021/07/07 04:44:38;;;;;;;18.23;8.10;;;;;;;;;;5052716;28;20027;-62
2021/07/07 04:47:04;;;;;;;15.63;7.53;;;;;;;;;;5053042;28;20432;-62
2021/07/07 04:49:30;;;;;;;20.70;9.23;;;;;;;;;;5051675;28;20075;-63
2021/07/07 04:51:57;;;;;;;16.58;8.15;;;;;;;;;;5052851;28;20071;-62
2021/07/07 04:54:23;;;;;;;18.40;7.68;;;;;;;;;;5052420;28;20025;-62
2021/07/07 04:56:49;;;;;;;19.67;8.00;;;;;;;;;;5051110;28;20056;-62
2021/07/07 04:59:15;;;;;;;17.38;7.95;;;;;;;;;;5050599;28;20056;-63
2021/07/07 05:01:42;;;;;;;19.73;8.05;;;;;;;;;;5052674;28;20021;-63
2021/07/07 05:04:08;;;;;;;16.67;8.30;;;;;;;;;;5051808;28;20104;-61
2021/07/07 05:06:34;;;;;;;20.13;8.60;;;;;;;;;;5052631;28;20086;-62
2021/07/07 05:09:00;;;;;;;19.45;7.82;;;;;;;;;;5052728;28;20028;-62
2021/07/07 05:11:26;;;;;;;20.63;8.65;;;;;;;;;;5052688;28;20025;-60
2021/07/07 05:13:52;;;;;;;18.23;8.25;;;;;;;;;;5060323;28;20024;-61
2021/07/07 05:16:19;;;;;;;19.52;8.77;;;;;;;;;;5054126;28;20062;-63
2021/07/07 05:18:46;;;;;;;21.15;8.30;;;;;;;;;;5056663;28;20029;-62
2021/07/07 05:21:12;;;;;;;20.08;8.13;;;;;;;;;;5050448;28;20049;-62
2021/07/07 05:23:38;;;;;;;18.35;8.63;;;;;;;;;;5071886;28;20122;-62
2021/07/07 05:26:04;;;;;;;20.55;8.10;;;;;;;;;;5053622;28;20031;-62
2021/07/07 05:28:30;;;;;;;16.65;8.30;;;;;;;;;;5072039;28;20017;-63
2021/07/07 05:31:03;;;;;;;19.02;7.95;;;;;;;;;;5062180;28;20017;-62
2021/07/07 05:33:34;;;;;;;23.02;9.07;;;;;;;;;;5052183;28;20384;-62
2021/07/07 05:36:00;;;;;;;17.05;8.32;;;;;;;;;;5050304;28;20028;-63
2021/07/07 05:38:26;;;;;;;18.42;8.20;;;;;;;;;;5051861;28;20088;-62
2021/07/07 05:40:52;;;;;;;22.33;8.88;;;;;;;;;;5051672;28;20029;-63
2021/07/07 05:43:18;;;;;;;20.27;8.18;;;;;;;;;;5051822;28;20021;-62
2021/07/07 05:45:44;;;;;;;23.77;8.77;;;;;;;;;;5084993;22;20338;-62
2021/07/07 05:48:10;;;;;;;18.38;8.30;;;;;;;;;;5071685;28;20025;-58
2021/07/07 05:50:36;;;;;;;22.13;8.93;;;;;;;;;;5072024;28;20519;-60
2021/07/07 05:53:02;;;;;;;18.98;8.27;;;;;;;;;;5053279;28;20029;-60
2021/07/07 05:55:28;;;;;;;19.95;9.65;;;;;;;;;;5052574;28;20136;-59
2021/07/07 05:57:54;;;;;;;20.65;9.00;;;;;;;;;;5071513;28;20023;-61
2021/07/07 06:00:22;;;;;;;17.88;8.00;;;;;;;;;;5069887;28;20025;-59
2021/07/07 06:02:51;;;;;;;18.23;8.70;;;;;;;;;;5071220;28;20051;-61
2021/07/07 06:05:17;;;;;;;18.60;8.57;;;;;;;;;;5053009;28;20040;-61
2021/07/07 06:07:43;;;;;;;17.92;9.00;;;;;;;;;;5053578;28;20392;-61
2021/07/07 06:10:10;;;;;;;22.35;10.00;;;;;;;;;;5071629;28;20187;-60
2021/07/07 06:12:36;;;;;;;18.70;9.40;;;;;;;;;;5054123;28;20369;-62
2021/07/07 06:15:03;;;;;;;17.75;8.15;;;;;;;;;;5051702;28;20036;-61
2021/07/07 06:17:29;;;;;;;19.05;9.27;;;;;;;;;;5071724;28;20111;-61
2021/07/07 06:19:55;;;;;;;15.80;7.78;;;;;;;;;;5053476;28;20063;-61
2021/07/07 06:22:21;;;;;;;17.48;8.15;;;;;;;;;;5071599;28;20107;-61
2021/07/07 06:24:47;;;;;;;19.48;9.02;;;;;;;;;;5070922;28;20035;-61
2021/07/07 06:27:13;;;;;;;18.02;8.75;;;;;;;;;;5071525;28;20173;-61
2021/07/07 06:29:39;;;;;;;21.73;8.30;;;;;;;;;;5053624;28;20021;-61
2021/07/07 06:32:05;;;;;;;20.08;8.00;;;;;;;;;;5053417;28;20051;-61
2021/07/07 06:34:31;;;;;;;20.23;8.70;;;;;;;;;;5052798;28;20071;-59
2021/07/07 06:36:57;;;;;;;17.45;8.68;;;;;;;;;;5071681;28;20020;-60
2021/07/07 06:39:23;;;;;;;17.75;8.15;;;;;;;;;;5071501;28;20021;-60
2021/07/07 06:41:49;;;;;;;20.48;8.35;;;;;;;;;;5053372;28;20024;-61
2021/07/07 06:44:15;;;;;;;17.20;8.45;;;;;;;;;;5070927;28;20032;-61
2021/07/07 06:46:41;;;;;;;18.45;8.52;;;;;;;;;;5070958;28;20033;-61
2021/07/07 06:49:07;;;;;;;19.67;8.30;;;;;;;;;;5071346;28;20024;-61
2021/07/07 06:51:33;;;;;;;19.42;8.73;;;;;;;;;;5071492;28;20103;-61
2021/07/07 06:53:59;;;;;;;18.83;8.90;;;;;;;;;;5071419;28;20393;-61
2021/07/07 06:56:25;;;;;;;19.13;7.80;;;;;;;;;;5070959;28;20023;-61
2021/07/07 06:58:51;;;;;;;17.85;8.07;;;;;;;;;;5053462;28;20498;-62
2021/07/07 07:01:17;;;;;;;18.92;8.02;;;;;;;;;;5071276;28;20020;-61
2021/07/07 07:03:43;;;;;;;19.55;8.05;;;;;;;;;;5071366;28;20092;-61
2021/07/07 07:06:09;;;;;;;20.73;8.65;;;;;;;;;;5070782;28;20021;-60
2021/07/07 07:08:36;;;;;;;19.55;8.30;;;;;;;;;;5071319;28;20056;-66
2021/07/07 07:11:02;;;;;;;18.38;8.35;;;;;;;;;;5053509;28;20507;-66
2021/07/07 07:13:28;;;;;;;19.85;8.57;;;;;;;;;;5071537;28;20021;-65
2021/07/07 07:15:54;;;;;;;19.38;8.68;;;;;;;;;;5070228;28;20092;-64
2021/07/07 07:18:20;;;;;;;22.90;8.70;;;;;;;;;;5071498;28;20021;-66
2021/07/07 07:20:46;;;;;;;24.15;8.95;;;;;;;;;;5071425;28;20029;-66
2021/07/07 07:23:14;;;;;;;18.90;8.30;;;;;;;;;;5071228;28;20476;-66
2021/07/07 07:25:40;;;;;;;19.98;8.77;;;;;;;;;;5053366;28;20036;-65
2021/07/07 07:28:06;;;;;;;18.27;8.70;;;;;;;;;;5074212;28;20538;-65
2021/07/07 07:30:32;;;;;;;18.02;8.60;;;;;;;;;;5052046;28;21281;-65
2021/07/07 07:32:58;;;;;;;22.05;9.13;;;;;;;;;;5074522;28;20400;-65
2021/07/07 07:35:24;;;;;;;21.63;8.73;;;;;;;;;;5075128;28;20028;-66
2021/07/07 07:38:00;;;;;;;17.52;8.40;;;;;;;;;;5057334;28;20029;-65
2021/07/07 07:40:33;;;;;;;20.33;9.07;;;;;;;;;;5075125;28;20025;-65
2021/07/07 07:43:01;;;;;;;21.23;9.95;;;;;;;;;;5074922;28;20099;-65
2021/07/07 07:45:27;;;;;;;;;;;;;;;;;;5062147;28;20110;-66
2021/07/07 07:47:53;;;;;;;20.30;9.27;;;;;;;;;;5093642;28;19907;-66
2021/07/07 07:50:19;;;;;;;18.98;8.73;;;;;;;;;;5095272;28;20559;-66
2021/07/07 07:52:45;;;;;;;17.95;8.95;;;;;;;;;;5082652;28;20025;-66
2021/07/07 07:55:11;;;;;;;18.80;9.68;;;;;;;;;;5054504;28;20053;-66
2021/07/07 07:57:38;;;;;;;17.27;9.13;;;;;;;;;;5055467;28;20074;-66
2021/07/07 08:00:06;;;;;;;20.40;9.60;;;;;;;;;;5055670;28;20112;-65
2021/07/07 08:02:32;;;;;;;18.87;9.90;;;;;;;;;;5070540;28;20145;-66
2021/07/07 08:04:58;;;;;;;20.23;9.52;;;;;;;;;;5095236;28;20480;-66
2021/07/07 08:07:27;;;;;;;18.52;9.00;;;;;;;;;;5078098;28;20028;-67
2021/07/07 08:09:53;;;;;;;24.25;9.75;;;;;;;;;;5095502;28;20119;-67
2021/07/07 08:12:19;;;;;;;17.35;10.07;;;;;;;;;;5095049;28;20396;-63
2021/07/07 08:14:45;;;;;;;20.20;10.25;;;;;;;;;;5075790;28;20024;-66
2021/07/07 08:17:11;;;;;;;19.17;9.82;;;;;;;;;;5056925;28;20032;-66
2021/07/07 08:19:37;;;;;;;19.58;10.13;;;;;;;;;;5057588;28;20025;-66
2021/07/07 08:22:04;;;;;;;18.23;9.10;;;;;;;;;;5057694;28;20105;-69
2021/07/07 08:24:30;;;;;;;18.77;10.65;;;;;;;;;;5074164;28;20028;-67
2021/07/07 08:26:58;;;;;;;19.08;9.90;;;;;;;;;;5075393;28;20039;-67
2021/07/07 08:29:24;;;;;;;18.73;9.70;;;;;;;;;;5057968;28;20020;-66
2021/07/07 08:31:50;;;;;;;18.75;9.93;;;;;;;;;;5056715;28;20036;-65
2021/07/07 08:34:16;;;;;;;18.70;10.25;;;;;;;;;;5073083;28;20404;-65
2021/07/07 08:36:42;;;;;;;17.75;10.25;;;;;;;;;;5072495;28;20025;-64
2021/07/07 08:39:08;;;;;;;19.20;9.35;;;;;;;;;;5072933;28;20441;-64
2021/07/07 08:41:34;;;;;;;21.98;10.05;;;;;;;;;;5073260;28;20044;-63
2021/07/07 08:44:00;;;;;;;18.13;9.75;;;;;;;;;;5073717;28;20033;-64
2021/07/07 08:46:26;;;;;;;20.25;9.20;;;;;;;;;;5071171;28;20028;-66
2021/07/07 08:48:52;;;;;;;19.17;9.05;;;;;;;;;;5072951;28;20119;-65
2021/07/07 08:51:18;;;;;;;19.25;9.57;;;;;;;;;;5071879;28;20123;-58
2021/07/07 08:53:45;;;;;;;20.25;9.80;;;;;;;;;;5071301;28;20103;-59
2021/07/07 08:56:12;;;;;;;20.90;9.60;;;;;;;;;;5071003;28;20016;-61
2021/07/07 08:58:39;;;;;;;17.13;9.30;;;;;;;;;;5071618;28;20017;-61
2021/07/07 09:01:05;;;;;;;19.20;9.52;;;;;;;;;;5071466;28;20025;-61
2021/07/07 09:03:31;;;;;;;21.10;10.10;;;;;;;;;;5071704;28;20024;-60
2021/07/07 09:05:58;;;;;;;17.60;9.55;;;;;;;;;;5072144;28;20488;-57
2021/07/07 09:08:24;;;;;;;17.00;9.32;;;;;;;;;;5055096;28;20020;-60
2021/07/07 09:10:50;;;;;;;19.52;9.73;;;;;;;;;;5073016;28;20024;-58
2021/07/07 09:13:21;;;;;;;18.40;9.93;;;;;;;;;;5055357;28;20078;-60
2021/07/07 09:15:48;;;;;;;18.52;10.10;;;;;;;;;;5072080;28;20016;-60
2021/07/07 09:18:19;;;;;;;18.25;9.55;;;;;;;;;;5072964;28;20024;-59
2021/07/07 09:20:45;;;;;;;18.48;10.40;;;;;;;;;;5071742;28;20547;-58
2021/07/07 09:23:21;;;;;;;19.98;11.10;;;;;;;;;;5072625;28;20029;-59
2021/07/07 09:25:48;;;;;;;20.70;10.27;;;;;;;;;;5053586;28;20020;-59
2021/07/07 09:28:15;;;;;;;16.98;10.57;;;;;;;;;;5055202;28;20558;-59
2021/07/07 09:30:41;;;;;;;17.98;10.65;;;;;;;;;;5073539;28;20058;-59
2021/07/07 09:33:10;;;;;;;21.38;11.32;;;;;;;;;;5054951;28;20062;-58
2021/07/07 09:35:36;;;;;;;17.58;11.25;;;;;;;;;;5072098;28;20057;-59
2021/07/07 09:38:05;;;;;;;18.45;11.82;;;;;;;;;;5073090;28;20017;-60
2021/07/07 09:40:31;;;;;;;22.10;13.18;;;;;;;;;;5073040;28;20093;-60
2021/07/07 09:42:57;;;;;;;17.48;11.77;;;;;;;;;;5072662;28;20047;-59
2021/07/07 09:45:23;;;;;;;17.70;11.98;;;;;;;;;;5054081;28;20028;-59
2021/07/07 09:47:50;;;;;;;16.58;11.45;;;;;;;;;;5072541;28;20028;-59
2021/07/07 09:50:17;;;;;;;18.17;12.48;;;;;;;;;;5054268;28;20028;-60
2021/07/07 09:52:43;;;;;;;17.17;12.10;;;;;;;;;;5073151;28;20078;-59
2021/07/07 09:55:10;;;;;;;19.52;11.75;;;;;;;;;;5068866;28;20428;-60
2021/07/07 09:57:48;;;;;;;20.33;12.60;;;;;;;;;;5071735;28;20020;-59
2021/07/07 10:00:19;;;;;;;22.27;12.30;;;;;;;;;;5070406;28;20020;-57
2021/07/07 10:02:47;;;;;;;19.45;13.18;;;;;;;;;;5071967;28;20083;-59
2021/07/07 10:05:15;;;;;;;19.27;12.30;;;;;;;;;;5070878;28;20072;-59
2021/07/07 10:07:42;;;;;;;19.43;12.93;;;;;;;;;;5071181;28;20735;-57
2021/07/07 10:10:08;;;;;;;21.02;13.45;;;;;;;;;;5071462;28;20271;-60
2021/07/07 10:12:34;;;;;;;19.48;12.80;;;;;;;;;;5051828;28;20029;-59
2021/07/07 10:15:01;;;;;;;17.58;12.57;;;;;;;;;;5053078;28;20482;-59
2021/07/07 10:17:27;;;;;;;19.27;12.48;;;;;;;;;;5053944;28;20477;-60
2021/07/07 10:19:54;;;;;;;19.20;12.20;;;;;;;;;;5071986;28;20097;-61
2021/07/07 10:22:21;;;;;;;18.52;11.95;;;;;;;;;;5072075;28;20023;-59
2021/07/07 10:24:47;;;;;;;18.58;12.20;;;;;;;;;;5053069;28;20492;-61
2021/07/07 10:27:13;;;;;;;16.38;11.60;;;;;;;;;;5071936;28;20082;-59
2021/07/07 10:29:42;;;;;;;18.55;12.32;;;;;;;;;;5071545;28;20040;-59
2021/07/07 10:32:08;;;;;;;18.08;11.90;;;;;;;;;;5071313;28;20547;-59
2021/07/07 10:34:37;;;;;;;20.92;12.98;;;;;;;;;;5069423;28;20059;-57
2021/07/07 10:37:03;;;;;;;18.02;13.02;;;;;;;;;;5071359;28;20021;-57
2021/07/07 10:39:30;;;;;;;17.25;11.80;;;;;;;;;;5071526;28;20404;-59
2021/07/07 10:41:56;;;;;;;17.95;12.63;;;;;;;;;;5071488;28;20103;-58
2021/07/07 10:44:25;;;;;;;18.67;13.40;;;;;;;;;;5071062;28;20029;-57
2021/07/07 10:47:02;;;;;;;22.20;13.70;;;;;;;;;;5053236;28;20064;-59
2021/07/07 10:49:30;;;;;;;19.63;13.38;;;;;;;;;;5071396;28;20078;-59
2021/07/07 10:52:00;;;;;;;16.58;12.27;;;;;;;;;;5070910;28;20029;-59
2021/07/07 10:54:27;;;;;;;18.75;13.05;;;;;;;;;;5071025;28;20441;-59
2021/07/07 10:56:54;;;;;;;19.70;13.27;;;;;;;;;;5071246;28;20480;-59
2021/07/07 10:59:38;;;;;;;16.75;12.75;;;;;;;;;;5071610;28;20020;-59
2021/07/07 11:02:21;;;;;;;18.00;13.00;;;;;;;;;;5073938;28;20020;-59
2021/07/07 11:04:58;;;;;;;20.70;14.20;;;;;;;;;;5056657;28;20025;-59
2021/07/07 11:07:26;;;;;;;17.80;13.00;;;;;;;;;;5075514;28;20016;-59
2021/07/07 11:09:55;;;;;;;21.45;14.20;;;;;;;;;;5075186;28;20397;-59
2021/07/07 11:12:25;;;;;;;19.38;13.40;;;;;;;;;;5057065;28;20039;-57
2021/07/07 11:15:08;;;;;;;19.73;13.52;;;;;;;;;;5055649;28;20032;-58
2021/07/07 11:17:35;;;;;;;17.25;13.10;;;;;;;;;;5056910;28;20030;-59
2021/07/07 11:20:04;;;;;;;19.63;12.95;;;;;;;;;;5074592;28;20020;-58
2021/07/07 11:22:30;;;;;;;17.70;13.07;;;;;;;;;;5074751;28;20031;-58
2021/07/07 11:24:57;;;;;;;19.40;12.98;;;;;;;;;;5074227;28;20017;-59
2021/07/07 11:27:23;;;;;;;17.40;12.82;;;;;;;;;;5075016;28;20028;-59
2021/07/07 11:29:50;;;;;;;20.25;12.43;;;;;;;;;;5074939;28;20396;-58
2021/07/07 11:32:23;;;;;;;18.70;12.75;;;;;;;;;;5075210;28;20040;-57
2021/07/07 11:34:50;;;;;;;17.65;12.80;;;;;;;;;;5054163;28;20060;-57
2021/07/07 11:37:16;;;;;;;17.77;12.93;;;;;;;;;;5074644;28;20451;-59
2021/07/07 11:39:42;;;;;;;18.95;12.65;;;;;;;;;;5056467;28;20393;-56
2021/07/07 11:42:08;;;;;;;18.95;12.40;;;;;;;;;;5074501;28;20027;-59
2021/07/07 11:44:45;;;;;;;19.55;12.98;;;;;;;;;;5073465;28;20025;-60
2021/07/07 11:47:12;;;;;;;17.67;12.35;;;;;;;;;;5024299;22;20046;-58
2021/07/07 11:49:38;;;;;;;17.45;12.38;;;;;;;;;;5014792;28;20045;-55
2021/07/07 11:52:05;;;;;;;17.77;12.43;;;;;;;;;;5013273;28;20394;-58
2021/07/07 11:54:47;;;;;;;18.15;12.90;;;;;;;;;;5013871;28;20034;-58
2021/07/07 11:57:14;;;;;;;17.80;13.00;;;;;;;;;;5014406;28;20032;-60
2021/07/07 11:59:40;;;;;;;20.40;14.00;;;;;;;;;;4997055;28;20466;-59
2021/07/07 12:02:06;;;;;;;17.67;13.23;;;;;;;;;;4996510;28;20137;-57
2021/07/07 12:04:32;;;;;;;19.65;13.60;;;;;;;;;;4995904;28;20095;-58
2021/07/07 12:06:58;;;;;;;18.75;13.50;;;;;;;;;;5014247;28;20025;-58
2021/07/07 12:09:24;;;;;;;18.33;13.30;;;;;;;;;;5014087;28;20026;-58
2021/07/07 12:11:57;;;;;;;20.10;13.52;;;;;;;;;;4995666;28;20026;-57
2021/07/07 12:14:24;;;;;;;17.52;13.02;;;;;;;;;;4995335;28;20033;-58
2021/07/07 12:16:51;;;;;;;17.20;12.57;;;;;;;;;;5013746;28;20018;-59
2021/07/07 12:19:17;;;;;;;18.55;13.15;;;;;;;;;;5014135;28;20038;-56
2021/07/07 12:21:45;;;;;;;18.67;12.82;;;;;;;;;;5014110;28;20140;-58
2021/07/07 12:24:15;;;;;;;19.75;13.10;;;;;;;;;;5013325;28;20052;-56
2021/07/07 12:26:42;;;;;;;17.70;13.13;;;;;;;;;;4996334;28;20385;-58
2021/07/07 12:29:10;;;;;;;18.58;13.60;;;;;;;;;;4996133;28;20069;-58
2021/07/07 12:31:37;;;;;;;19.15;13.18;;;;;;;;;;5013793;28;20030;-58
2021/07/07 12:34:05;;;;;;;17.85;12.75;;;25.00;99.90;;;;;;4993938;28;20029;-58
2021/07/07 12:36:32;;;;;;;19.13;13.23;;;;;;;;;;5013018;28;20179;-59
2021/07/07 12:38:59;;;;;;;17.55;12.90;;;30.80;96.00;;;;;;4996153;28;20025;-55
2021/07/07 12:41:39;;;;;;;19.50;13.47;;;;;;;;;;4995784;28;20026;-59
2021/07/07 12:46:35;;;;;;;17.98;13.55;;;;;;;;;;5013392;28;20033;-59
2021/07/07 12:49:01;;;;;;;19.67;14.77;;;;;;;;;;5013189;28;20480;-59
2021/07/07 12:51:28;;;;;;;17.15;13.73;;;;;;;;;;5013069;28;20482;-60
2021/07/07 12:53:55;;;;;;;20.07;13.43;;;;;;;;;;5013264;28;20100;-58
2021/07/07 12:56:21;;;;;;;17.80;14.30;;;;;;;;;;5011981;28;20026;-59
2021/07/07 12:59:08;;;;;;;18.33;14.27;;;;;;;;;;5012819;28;20490;-59
2021/07/07 13:01:34;;;;;;;18.40;14.40;;;;;;;;;;5012123;28;20394;-59
2021/07/07 13:04:00;;;;;;;19.50;14.70;;;;;;;;;;5012302;28;20117;-57
2021/07/07 13:06:26;;;;;;;18.05;14.25;;;;;;;;;;5011952;28;20217;-59
2021/07/07 13:09:05;;;;;;;19.35;13.93;;;;;;;;;;5012416;28;20025;-59
2021/07/07 13:11:31;;;;;;;22.70;14.00;;;;;;;;;;5012777;28;20071;-58
2021/07/07 13:13:59;;;;;;;18.83;13.80;;;;;;;;;;5011640;28;20029;-60
2021/07/07 13:16:32;;;;;;;18.23;13.88;;;;;;;;;;5012292;28;20100;-59
2021/07/07 13:19:00;;;;;;;19.77;14.50;;;;;;;;;;5013096;28;20474;-61
2021/07/07 13:21:34;;;;;;;18.15;13.70;;;;;;;;;;4995281;28;20030;-58
2021/07/07 13:24:01;;;;;;;17.38;13.32;;;;;;;;;;5011411;28;20168;-59
2021/07/07 13:26:28;;;;;;;18.77;13.20;;;;;;;;;;5011871;28;20109;-59
2021/07/07 13:29:13;;;;;;;19.80;13.77;;;;;;;;;;5012436;28;20038;-60
2021/07/07 13:31:39;;;;;;;21.85;14.18;;;;;;;;;;5012178;28;20026;-58
2021/07/07 13:34:05;;;;;;;17.35;13.20;;;;;;;;;;5011937;28;20025;-59
2021/07/07 13:36:35;;;;;;;17.27;13.80;;;;;;;;;;4993885;28;20025;-57
2021/07/07 13:39:08;;;;;;;20.73;14.30;;;;;;;;;;4994556;28;20605;-62
2021/07/07 13:41:34;;;;;;;23.00;13.60;;;;;;;;;;5012542;28;20030;-57
2021/07/07 13:44:00;;;;;;;17.45;13.20;;;;;;;;;;4994671;28;20022;-60
2021/07/07 13:46:26;;;;;;;20.20;13.70;;;;;;;;;;5010618;28;20021;-60
2021/07/07 13:48:52;;;;;;;20.15;13.55;;;;;;;;;;5011269;28;20040;-59
2021/07/07 13:51:18;;;;;;;18.70;14.30;;;;;;;;;;5011531;28;20030;-61
2021/07/07 13:53:44;;;;;;;19.05;13.93;;;;;;;;;;4994162;28;20060;-59
2021/07/07 13:56:10;;;;;;;18.42;14.40;;;;;;;;;;5011069;28;20034;-58
2021/07/07 13:58:36;;;;;;;18.63;14.63;;;;;;;;;;4994658;28;20072;-59
2021/07/07 14:01:02;;;;;;;19.55;14.60;;;;;;;;;;5011374;28;20513;-62
2021/07/07 14:03:28;;;;;;;18.50;14.48;;;;;;;;;;5011650;28;20439;-59
2021/07/07 14:05:56;;;;;;;16.77;14.45;;;;;;;;;;4993933;28;20025;-58
2021/07/07 14:08:22;;;;;;;20.25;14.48;;;;;;;;;;5012385;28;20057;-61
2021/07/07 14:10:48;;;;;;;18.00;14.27;;;30.50;94.80;;;;;;4994002;28;20034;-59
2021/07/07 14:13:14;;;;;;;18.25;14.68;;;;;;;;;;5011576;28;20105;-57
2021/07/07 14:15:41;;;;;;;17.65;14.32;;;;;;;;;;5011223;28;20096;-61
2021/07/07 14:18:06;;;;;;;18.65;14.88;;;32.30;94.80;;;;;;5011866;28;20149;-60
2021/07/07 14:20:32;;;;;;;17.23;14.27;;;33.70;92.40;;;;;;5011958;28;20522;-60
2021/07/07 14:22:58;;;;;;;18.17;14.57;;;32.00;92.40;;;;;;4993737;28;20068;-59
2021/07/07 14:25:24;;;;;;;17.42;14.50;;;32.00;93.50;;;;;;4993040;28;20029;-56